Time;durP1;ratioP1;P1;durP2;ratioP2;P2;SDS_P1;SDS_P2;PMS_P1;PMS_P2;Temp;Humidity;BMP_temperature;BMP_pressure;BME280_temperature;BME280_humidity;BME280_pressure;Samples;Min_cycle;Max_cycle;Signal;HPM_P1;HPM_P2
2023/06/14 00:00:40;;;;;;;8.40;4.65;;;;;;;15.67;74.69;100101.72;5094476;28;20463;-73
2023/06/14 00:03:17;;;;;;;6.45;3.90;;;;;;;15.65;74.81;100109.19;5096804;28;20484;-73
2023/06/14 00:05:43;;;;;;;6.90;4.40;;;;;;;15.59;74.74;100100.91;5104943;28;20024;-73
2023/06/14 00:08:10;;;;;;;8.90;4.32;;;;;;;15.57;74.83;100105.63;5105276;28;20051;-73
2023/06/14 00:10:36;;;;;;;9.00;4.13;;;;;;;15.55;75.13;100113.09;5105499;28;20059;-73
2023/06/14 00:13:03;;;;;;;5.55;4.00;;;;;;;15.51;75.27;100117.16;5108324;28;20096;-73
2023/06/14 00:15:30;;;;;;;8.40;4.68;;;;;;;15.49;75.76;100122.72;5099335;28;20539;-72
2023/06/14 00:18:00;;;;;;;6.18;3.65;;;;;;;15.37;75.96;100107.88;5103468;28;20084;-73
2023/06/14 00:20:26;;;;;;;9.07;4.03;;;;;;;15.38;75.85;100119.53;5097409;28;20069;-73
2023/06/14 00:22:52;;;;;;;7.05;4.15;;;;;;;15.38;76.26;100125.75;5107323;28;20115;-73
2023/06/14 00:25:17;;;;;;;7.47;4.32;;;;;;;15.34;76.50;100135.19;5110483;28;20114;-72
2023/06/14 00:27:43;;;;;;;10.00;4.68;;;;;;;15.29;76.80;100131.31;5107612;28;20036;-72
2023/06/14 00:30:09;;;;;;;9.25;4.57;;;;;;;15.28;77.02;100126.91;5103726;28;20024;-73
2023/06/14 00:32:34;;;;;;;8.10;4.50;;;;;;;15.22;77.27;100127.59;5103843;28;20102;-73
2023/06/14 00:35:00;;;;;;;6.35;3.85;;;;;;;15.09;77.67;100111.88;5102813;28;20112;-73
2023/06/14 00:37:25;;;;;;;7.13;4.65;;;;;;;15.08;77.32;100112.06;5105333;28;20029;-73
2023/06/14 00:39:50;;;;;;;6.20;4.10;;;;;;;15.11;77.74;100122.53;5099472;28;20046;-73
2023/06/14 00:42:26;;;;;;;8.45;4.50;;;;;;;15.04;77.97;100114.25;5099744;28;20024;-73
2023/06/14 00:44:52;;;;;;;7.00;4.38;;;;;;;15.10;78.06;100124.41;5102751;28;20031;-73
2023/06/14 00:47:18;;;;;;;10.27;4.38;;;;;;;15.14;78.22;100131.16;5098498;28;20023;-72
2023/06/14 00:49:46;;;;;;;5.32;4.03;;;;;;;15.11;78.63;100122.53;5103690;28;20123;-73
2023/06/14 00:52:12;;;;;;;6.18;4.40;;;;;;;15.17;78.50;100128.13;5094870;28;20420;-73
2023/06/14 00:54:39;;;;;;;9.40;4.45;;;;;;;15.15;78.13;100123.88;5101928;28;20030;-73
2023/06/14 00:57:05;;;;;;;7.55;4.50;;;;;;;15.13;78.57;100129.44;5102246;28;20036;-73
2023/06/14 00:59:31;;;;;;;10.00;5.18;;;;;;;15.12;79.50;100137.75;5099010;28;20558;-73
2023/06/14 01:01:56;;;;;;;6.80;4.30;;;;;;;15.11;79.52;100131.47;5105321;28;20028;-73
2023/06/14 01:04:22;;;;;;;6.13;4.18;;;;;;;15.10;79.69;100128.94;5107199;28;20047;-72
2023/06/14 01:07:14;;;;;;;6.43;4.30;;;;;;;15.07;79.06;100119.34;5091915;28;20019;-73
2023/06/14 01:09:58;;;;;;;6.97;3.97;;;;;;;15.05;78.77;100124.03;5095292;28;20119;-73
2023/06/14 01:12:46;;;;;;;6.65;4.50;;;;;;;15.05;80.42;100126.75;5096529;28;20028;-73
2023/06/14 01:15:12;;;;;;;7.60;4.18;;;;;;;15.01;80.24;100132.66;5112590;28;20038;-73
2023/06/14 01:17:41;;;;;;;6.20;4.55;;;;;;;15.00;79.99;100126.38;5101769;28;20028;-73
2023/06/14 01:20:12;;;;;;;5.75;4.13;;;;;;;15.01;79.59;100120.00;5101795;28;20019;-73
2023/06/14 01:22:43;;;;;;;7.45;4.85;;;;;;;14.93;79.61;100111.88;5097388;28;20020;-73
2023/06/14 01:25:08;;;;;;;9.95;5.65;;;;;;;14.85;79.81;100101.06;5081677;28;20020;-72
2023/06/14 01:27:37;;;;;;;10.35;4.80;;;;;;;14.95;79.96;100119.81;5105036;28;20126;-73
2023/06/14 01:30:05;;;;;;;8.65;5.28;;;;;;;14.89;80.49;100113.22;5104967;28;20052;-73
2023/06/14 01:32:30;;;;;;;6.88;4.90;;;;;;;14.90;80.93;100122.19;5098313;28;20086;-73
2023/06/14 01:34:56;;;;;;;6.40;4.85;;;;;;;14.85;80.78;100119.13;5103821;28;20047;-73
2023/06/14 01:37:22;;;;;;;7.57;4.93;;;;;;;14.81;80.34;100124.03;5105125;28;20438;-73
2023/06/14 01:39:49;;;;;;;9.85;5.13;;;;;;;14.77;80.42;100111.84;5105457;28;20024;-73
2023/06/14 01:42:16;;;;;;;8.32;5.10;;;;;;;14.73;80.88;100117.75;5094531;28;20031;-72
2023/06/14 01:44:44;;;;;;;6.75;4.40;;;;;;;14.78;80.57;100123.50;5100410;28;20026;-73
2023/06/14 01:47:10;;;;;;;8.40;5.20;;;;;;;14.74;80.63;100120.28;5106721;28;20024;-73
2023/06/14 01:49:35;;;;;;;8.88;5.15;;;;;;;14.80;80.51;100125.03;5099324;28;20035;-73
2023/06/14 01:52:01;;;;;;;8.27;4.93;;;;;;;14.69;80.26;100109.16;5107323;28;20039;-73
2023/06/14 01:54:27;;;;;;;9.35;5.00;;;;;;;14.78;80.72;100127.06;5104094;28;20027;-73
2023/06/14 01:56:53;;;;;;;9.40;5.40;;;;;;;14.73;80.92;100118.59;5089802;28;20036;-73
2023/06/14 01:59:18;;;;;;;7.25;5.35;;;;;;;14.74;80.79;100122.16;5100357;28;20035;-73
2023/06/14 02:01:46;;;;;;;6.65;4.78;;;;;;;14.68;81.16;100115.56;5102855;28;20026;-73
2023/06/14 02:04:11;;;;;;;8.52;5.25;;;;;;;14.75;80.99;100115.75;5109163;28;20044;-73
2023/06/14 02:06:37;;;;;;;8.40;5.03;;;;;;;14.74;81.12;100127.56;5105887;28;20055;-73
2023/06/14 02:09:03;;;;;;;9.13;5.30;;;;;;;14.73;80.95;100124.00;5099502;28;20110;-73
2023/06/14 02:11:29;;;;;;;7.53;5.30;;;;;;;14.72;81.57;100130.41;5103812;28;20051;-73
2023/06/14 02:13:55;;;;;;;6.47;4.72;;;;;;;14.70;81.43;100126.19;5099551;28;20067;-73
2023/06/14 02:16:21;;;;;;;7.75;5.68;;;;;;;14.59;81.40;100108.47;5104052;28;20027;-73
2023/06/14 02:18:48;;;;;;;7.95;5.00;;;;;;;14.68;81.64;100128.22;5081797;28;20032;-74
2023/06/14 02:21:14;;;;;;;6.90;5.70;;;;;;;14.64;82.39;100132.25;5091397;28;20483;-73
2023/06/14 02:23:40;;;;;;;7.75;5.10;;;;;;;14.61;83.58;100127.19;5094646;28;20066;-73
2023/06/14 02:26:05;;;;;;;12.48;6.55;;;;;;;14.58;84.22;100124.81;5096546;28;20040;-73
2023/06/14 02:28:31;;;;;;;8.73;6.35;;;;;;;14.61;85.10;100127.19;5083636;28;20051;-73
2023/06/14 02:30:56;;;;;;;11.98;7.15;;;;;;;14.55;86.46;100125.13;5095476;28;20032;-73
2023/06/14 02:33:22;;;;;;;9.70;6.25;;;;;;;14.64;86.99;100134.97;5102485;28;20028;-73
2023/06/14 02:35:47;;;;;;;10.02;6.70;;;;;;;14.64;87.77;100140.34;5100475;28;20047;-73
2023/06/14 02:38:13;;;;;;;10.65;7.22;;;;;;;14.59;87.81;100130.06;5103134;28;20049;-73
2023/06/14 02:40:38;;;;;;;10.35;6.30;;;;;;;14.67;87.98;100134.63;5106353;28;20153;-73
2023/06/14 02:43:04;;;;;;;12.20;6.05;;;;;;;14.58;87.84;100112.19;5107024;28;20042;-73
2023/06/14 02:45:29;;;;;;;10.40;7.13;;;;;;;14.69;88.17;100121.78;5104432;28;20446;-73
2023/06/14 02:47:55;;;;;;;8.40;6.43;;;;;;;14.68;88.18;100123.66;5100558;28;20038;-73
2023/06/14 02:50:21;;;;;;;10.90;6.90;;;;;;;14.63;88.54;100115.22;5105011;28;20095;-73
2023/06/14 02:52:47;;;;;;;11.63;6.75;;;;;;;14.69;88.96;100113.69;5093830;28;20031;-73
2023/06/14 02:55:12;;;;;;;8.95;6.50;;;;;;;14.71;88.87;100125.19;5088547;28;20114;-72
2023/06/14 02:57:38;;;;;;;10.93;7.40;;;;;;;14.65;88.67;100115.91;5097781;28;20089;-72
2023/06/14 03:00:04;;;;;;;10.50;6.45;;;;;;;14.73;87.52;100123.13;5101012;28;20402;-72
2023/06/14 03:02:29;;;;;;;9.07;6.22;;;;;;;14.75;86.52;100130.09;5109133;28;20027;-72
2023/06/14 03:04:55;;;;;;;9.02;6.25;;;;;;;14.76;85.91;100125.50;5103857;28;20027;-72
2023/06/14 03:07:23;;;;;;;9.90;6.80;;;;;;;14.72;85.84;100124.16;5098723;28;20028;-72
2023/06/14 03:09:48;;;;;;;11.65;7.38;;;;;;;14.63;85.78;100112.50;5102912;28;20035;-72
2023/06/14 03:12:14;;;;;;;11.07;7.22;;;;;;;14.72;86.19;100122.31;5104755;28;20020;-73
2023/06/14 03:14:41;;;;;;;13.45;7.38;;;;;;;14.70;86.64;100132.44;5103912;28;20028;-72
2023/06/14 03:17:08;;;;;;;11.05;6.80;;;;;;;14.67;87.21;100118.44;5101297;28;20080;-72
2023/06/14 03:19:33;;;;;;;13.13;8.27;;;;;;;14.64;87.81;100114.19;5095848;28;20020;-72
2023/06/14 03:21:59;;;;;;;11.68;7.80;;;;;;;14.69;88.28;100119.94;5100900;28;20064;-72
2023/06/14 03:24:27;;;;;;;11.80;8.32;;;;;;;14.62;89.04;100105.44;5102531;28;20020;-72
2023/06/14 03:26:54;;;;;;;11.32;7.97;;;;;;;14.70;89.14;100124.31;5113425;28;20491;-72
2023/06/14 03:29:19;;;;;;;11.60;7.45;;;;;;;14.66;89.26;100119.41;5107006;28;20076;-72
2023/06/14 03:32:02;;;;;;;15.55;8.30;;;;;;;14.63;89.08;100112.50;5083575;28;20146;-72
2023/06/14 03:34:27;;;;;;;11.50;7.72;;;;;;;14.75;89.35;100132.78;5090423;28;20027;-72
2023/06/14 03:36:53;;;;;;;16.38;8.57;;;;;;;14.74;90.20;100127.56;5100876;28;20032;-73
2023/06/14 03:39:19;;;;;;;12.48;8.65;;;;;;;14.78;90.56;100142.41;5104191;28;20027;-72
2023/06/14 03:41:45;;;;;;;12.93;8.43;;;;;;;14.78;90.77;100137.84;5078564;28;20024;-73
2023/06/14 03:44:11;;;;;;;13.38;9.13;;;;;;;14.77;91.02;100128.03;5079599;28;20166;-73
2023/06/14 03:46:36;;;;;;;16.08;8.75;;;;;;;14.79;91.00;100125.19;5108286;28;20512;-73
2023/06/14 03:49:02;;;;;;;11.85;8.48;;;;;;;14.78;91.18;100118.97;5101332;28;20483;-73
2023/06/14 03:51:28;;;;;;;14.63;9.15;;;;;;;14.90;91.36;100135.69;5101739;28;20028;-73
2023/06/14 03:53:55;;;;;;;11.77;8.93;;;;;;;14.98;91.60;100144.63;5097981;28;20028;-73
2023/06/14 03:56:21;;;;;;;9.60;8.07;;;;;;;15.00;91.73;100139.06;5098839;28;20031;-73
2023/06/14 03:58:46;;;;;;;12.70;8.57;;;;;;;15.10;91.60;100143.31;5100573;28;20099;-73
2023/06/14 04:01:12;;;;;;;11.57;8.90;;;;;;;15.19;91.44;100141.44;5101763;28;20024;-73
2023/06/14 04:03:37;;;;;;;10.18;8.10;;;;;;;15.25;91.31;100144.31;5103011;28;20509;-73
2023/06/14 04:06:05;;;;;;;12.43;9.07;;;;;;;15.33;90.98;100138.06;5101715;28;20099;-73
2023/06/14 04:08:31;;;;;;;14.93;9.57;;;;;;;15.45;90.36;100152.97;5104445;28;20058;-73
2023/06/14 04:10:56;;;;;;;12.95;9.68;;;;;;;15.54;90.16;100147.38;5096573;28;20478;-73
2023/06/14 04:13:21;;;;;;;13.65;9.68;;;;;;;15.62;89.83;100150.09;5099205;28;20470;-73
2023/06/14 04:15:47;;;;;;;13.73;9.18;;;;;;;15.66;89.97;100145.16;5101118;28;20031;-73
2023/06/14 04:18:12;;;;;;;13.45;9.75;;;;;;;15.72;89.84;100145.34;5103613;28;20060;-72
2023/06/14 04:20:39;;;;;;;12.40;9.60;;;;;;;15.83;89.83;100154.94;5083114;28;20024;-73
2023/06/14 04:23:15;;;;;;;15.02;10.27;;;;;;;15.88;89.48;100150.72;5106462;28;20038;-73
2023/06/14 04:25:40;;;;;;;13.35;9.75;;;;;;;15.98;89.37;100157.78;5102102;28;20104;-72
2023/06/14 04:28:08;;;;;;;11.43;9.20;;;;;;;16.04;89.04;100155.22;5097004;28;20024;-73
2023/06/14 04:30:35;;;;;;;12.10;8.95;;;;;;;16.08;88.99;100159.28;5101679;28;20020;-74
2023/06/14 04:33:05;;;;;;;16.85;10.07;;;;;;;16.09;88.89;100152.00;5098826;28;20471;-73
2023/06/14 04:35:32;;;;;;;14.43;10.02;;;;;;;16.20;88.81;100154.31;5085266;28;20031;-73
2023/06/14 04:37:58;;;;;;;14.02;10.50;;;;;;;16.34;88.73;100167.97;5100122;28;20063;-73
2023/06/14 04:40:23;;;;;;;12.00;8.80;;;;;;;16.32;88.35;100142.13;5106948;28;20043;-73
2023/06/14 04:42:50;;;;;;;11.50;9.07;;;;;;;16.50;87.59;100167.09;5101445;28;20055;-73
2023/06/14 04:45:16;;;;;;;13.10;10.15;;;;;;;16.61;87.47;100170.25;5098294;28;20081;-73
2023/06/14 04:47:43;;;;;;;12.18;9.18;;;;;;;16.72;86.95;100166.31;5105536;28;20023;-73
2023/06/14 04:50:10;;;;;;;10.50;8.52;;;;;;;16.85;86.58;100166.56;5082803;28;20031;-73
2023/06/14 04:52:36;;;;;;;13.95;9.65;;;;;;;16.95;86.48;100159.06;5099276;28;20019;-73
2023/06/14 04:55:03;;;;;;;12.00;9.23;;;;;;;17.06;85.95;100155.94;5096266;28;20027;-73
2023/06/14 04:57:29;;;;;;;13.52;9.75;;;;;;;17.23;85.11;100162.94;5098223;28;20031;-71
2023/06/14 04:59:55;;;;;;;13.45;10.15;;;;;;;17.36;84.89;100155.91;5100369;28;20034;-73
2023/06/14 05:02:22;;;;;;;12.75;10.07;;;;;;;17.50;83.70;100170.53;5097217;28;20032;-72
2023/06/14 05:04:48;;;;;;;16.45;10.18;;;;;;;17.62;83.49;100161.81;5097369;28;20015;-72
2023/06/14 05:07:14;;;;;;;13.10;9.77;;;;;;;17.77;82.76;100176.22;5099234;28;20105;-73
2023/06/14 05:09:39;;;;;;;13.57;9.50;;;;;;;17.87;82.29;100170.53;5099449;28;20024;-73
2023/06/14 05:12:07;;;;;;;12.00;9.32;;;;;;;17.99;81.96;100174.47;5095818;28;20158;-72
2023/06/14 05:14:34;;;;;;;13.00;9.35;;;;;;;17.98;81.35;100162.78;5097679;28;20609;-72
2023/06/14 05:17:00;;;;;;;12.65;9.20;;;;;;;18.15;81.37;100179.72;5098967;28;20020;-73
2023/06/14 05:19:26;;;;;;;13.43;8.77;;;;;;;18.22;80.83;100172.53;5103552;28;20086;-74
2023/06/14 05:21:52;;;;;;;12.55;8.82;;;;;;;18.41;80.64;100174.69;5083084;28;20630;-74
2023/06/14 05:24:18;;;;;;;13.98;9.18;;;;;;;18.52;80.13;100173.38;5100551;28;20025;-72
2023/06/14 05:26:43;;;;;;;10.35;7.95;;;;;;;18.66;79.73;100165.22;5102774;28;20407;-72
2023/06/14 05:29:09;;;;;;;13.13;9.13;;;;;;;18.68;78.87;100162.31;5098112;28;20059;-73
2023/06/14 05:31:34;;;;;;;15.05;8.55;;;;;;;18.77;78.59;100155.75;5099009;28;20036;-73
2023/06/14 05:34:00;;;;;;;14.13;8.07;;;;;;;18.91;77.78;100163.00;5102551;28;20024;-72
2023/06/14 05:36:27;;;;;;;13.82;8.68;;;;;;;19.02;76.49;100162.53;5101200;28;20032;-72
2023/06/14 05:38:57;;;;;;;11.18;7.88;;;;;;;19.15;75.83;100166.22;5097879;28;20031;-73
2023/06/14 05:41:26;;;;;;;13.98;8.60;;;;;;;19.21;74.99;100173.59;5099578;28;20103;-73
2023/06/14 05:43:52;;;;;;;13.32;8.10;;;;;;;19.29;74.60;100175.38;5095434;28;20039;-72
2023/06/14 05:46:24;;;;;;;11.70;7.53;;;;;;;19.34;74.59;100170.19;5103312;28;20024;-72
2023/06/14 05:48:49;;;;;;;13.23;9.10;;;;;;;19.45;73.93;100172.41;5098500;28;20027;-73
2023/06/14 05:51:18;;;;;;;19.52;8.95;;;;;;;19.48;73.53;100180.19;5091856;28;20036;-68
2023/06/14 05:53:45;;;;;;;14.65;8.18;;;;;;;19.55;73.70;100171.03;5100852;28;20024;-68
2023/06/14 05:56:10;;;;;;;11.43;8.45;;;;;;;19.65;73.06;100179.72;5090621;28;20020;-67
2023/06/14 05:58:35;;;;;;;9.07;7.40;;;;;;;19.71;72.37;100181.66;5087696;28;20072;-68
2023/06/14 06:01:02;;;;;;;8.60;6.65;;;;;;;19.82;72.34;100181.09;5092254;28;20459;-69
2023/06/14 06:03:29;;;;;;;9.05;7.10;;;;;;;19.94;71.38;100176.81;5094858;28;20032;-69
2023/06/14 06:05:54;;;;;;;10.45;7.28;;;;;;;20.00;70.33;100162.38;5093486;28;20081;-67
2023/06/14 06:08:20;;;;;;;9.13;6.93;;;;;;;20.19;69.56;100171.78;5089250;28;20024;-69
2023/06/14 06:10:46;;;;;;;8.23;6.55;;;;;;;20.27;68.90;100165.31;5095982;28;20040;-68
2023/06/14 06:13:11;;;;;;;9.65;6.57;;;;;;;20.41;68.15;100169.81;5091152;28;20046;-68
2023/06/14 06:15:37;;;;;;;8.25;6.68;;;;;;;20.47;67.62;100177.19;5090858;28;20047;-68
2023/06/14 06:18:02;;;;;;;9.70;6.70;;;;;;;20.59;67.51;100175.53;5097026;28;20107;-68
2023/06/14 06:20:30;;;;;;;12.00;7.28;;;;;;;20.76;66.70;100180.44;5080715;28;20028;-69
2023/06/14 06:22:57;;;;;;;7.78;6.07;;;;;;;20.78;65.52;100169.34;5092956;28;20051;-67
2023/06/14 06:25:23;;;;;;;6.63;5.35;;;;;;;20.92;64.64;100171.09;5095532;28;20467;-68
2023/06/14 06:27:48;;;;;;;9.90;6.05;;;;;;;20.89;64.17;100155.16;5095555;28;20034;-69
2023/06/14 06:30:14;;;;;;;11.65;8.10;;;;;;;21.06;64.09;100170.97;5094074;28;20676;-69
2023/06/14 06:32:39;;;;;;;8.82;6.32;;;;;;;21.13;63.99;100180.00;5096750;28;20023;-69
2023/06/14 06:35:07;;;;;;;8.60;6.53;;;;;;;21.20;64.05;100171.81;5099158;28;20393;-68
2023/06/14 06:37:32;;;;;;;7.78;6.10;;;;;;;21.31;63.28;100182.16;5102209;28;20065;-69
2023/06/14 06:39:57;;;;;;;7.35;6.13;;;;;;;21.34;62.81;100170.78;5101758;28;20032;-68
2023/06/14 06:42:23;;;;;;;9.43;6.90;;;;;;;21.52;62.21;100185.53;5084129;28;20020;-70
2023/06/14 06:44:48;;;;;;;10.65;5.97;;;;;;;21.54;61.70;100177.97;5073930;28;20028;-69
2023/06/14 06:47:14;;;;;;;9.68;6.47;;;;;;;21.62;61.36;100175.03;5090152;28;20028;-69
2023/06/14 06:49:39;;;;;;;8.93;5.38;;;;;;;21.63;60.69;100162.22;5090645;28;20062;-69
2023/06/14 06:52:06;;;;;;;7.30;5.38;;;;;;;21.89;58.98;100184.94;5100185;28;20035;-69
2023/06/14 06:54:33;;;;;;;7.68;5.05;;;;;;;21.96;57.93;100182.22;5096343;28;20032;-69
2023/06/14 06:56:59;;;;;;;8.50;5.60;;;;;;;22.10;58.25;100189.34;5098863;28;20035;-68
2023/06/14 06:59:24;;;;;;;7.00;5.65;;;;;;;22.09;58.45;100179.47;5104934;28;20446;-69
2023/06/14 07:01:50;;;;;;;9.57;6.57;;;;;;;22.25;57.99;100195.44;5086691;28;20031;-69
2023/06/14 07:04:16;;;;;;;10.07;5.63;;;;;;;22.29;58.22;100188.47;5090180;28;20123;-69
2023/06/14 07:06:42;;;;;;;9.02;6.57;;;;;;;22.41;58.22;100186.78;5101921;28;20023;-68
2023/06/14 07:09:12;;;;;;;8.50;6.13;;;;;;;22.49;57.65;100180.22;5097760;28;20077;-69
2023/06/14 07:11:38;;;;;;;6.88;5.32;;;;;;;22.49;56.98;100172.00;5091379;28;20115;-68
2023/06/14 07:14:03;;;;;;;6.65;4.90;;;;;;;22.65;56.05;100183.38;5083584;28;20546;-70
2023/06/14 07:16:28;;;;;;;10.13;5.35;;;;;;;22.68;56.01;100185.66;5090063;28;20026;-69
2023/06/14 07:18:54;;;;;;;6.32;5.50;;;;;;;22.77;55.77;100187.13;5104340;28;20047;-69
2023/06/14 07:21:20;;;;;;;9.80;5.78;;;;;;;22.82;55.48;100189.22;5097575;28;20035;-68
2023/06/14 07:23:45;;;;;;;7.55;5.53;;;;;;;22.87;55.84;100182.03;5077109;28;20134;-69
2023/06/14 07:26:10;;;;;;;6.88;5.43;;;;;;;23.00;56.04;100187.44;5092594;28;20051;-68
2023/06/14 07:28:36;;;;;;;5.70;4.90;;;;;;;23.02;55.32;100174.34;5099199;28;20084;-68
2023/06/14 07:31:02;;;;;;;8.00;5.75;;;;;;;23.12;54.86;100179.38;5077322;28;20453;-68
2023/06/14 07:33:28;;;;;;;7.95;5.47;;;;;;;23.24;54.94;100183.09;5093023;28;20433;-68
2023/06/14 07:35:53;;;;;;;9.38;5.68;;;;;;;23.27;54.65;100175.31;5081893;28;20031;-69
2023/06/14 07:38:19;;;;;;;6.63;4.80;;;;;;;23.28;54.36;100168.75;5106982;28;20379;-69
2023/06/14 07:40:44;;;;;;;7.13;4.90;;;;;;;23.42;53.01;100191.44;5095984;28;20050;-68
2023/06/14 07:43:10;;;;;;;7.03;4.55;;;;;;;23.38;52.53;100174.59;5094224;28;20024;-68
2023/06/14 07:45:36;;;;;;;6.88;4.88;;;;;;;23.43;51.95;100172.03;5093738;28;20027;-68
2023/06/14 07:48:01;;;;;;;6.25;4.45;;;;;;;23.60;51.36;100189.59;5103340;28;20067;-68
2023/06/14 07:50:27;;;;;;;7.07;4.80;;;;;;;23.62;50.46;100189.38;5088521;28;20499;-69
2023/06/14 07:52:52;;;;;;;6.55;3.97;;;;;;;23.58;49.60;100178.06;5100105;28;20403;-68
2023/06/14 07:55:18;;;;;;;6.95;4.00;;;;;;;23.67;48.88;100193.13;5100745;28;20662;-68
2023/06/14 07:57:44;;;;;;;4.60;3.58;;;;;;;23.75;49.18;100192.03;5068014;28;20048;-68
2023/06/14 08:00:15;;;;;;;6.68;3.72;;;;;;;23.79;49.34;100190.50;5094320;28;20383;-68
2023/06/14 08:02:43;;;;;;;5.82;3.80;;;;;;;23.90;49.04;100201.59;5101063;28;20106;-68
2023/06/14 08:05:11;;;;;;;10.93;3.97;;;;;;;23.92;47.29;100194.00;5089526;28;20567;-68
2023/06/14 08:07:37;;;;;;;4.93;4.15;;;;;;;24.01;47.29;100198.16;5094411;28;20027;-69
2023/06/14 08:10:03;;;;;;;9.13;3.67;;;;;;;24.00;46.92;100190.16;5091073;28;20058;-69
2023/06/14 08:12:29;;;;;;;5.13;3.85;;;;;;;24.03;46.86;100196.06;5094512;28;20114;-68
2023/06/14 08:14:54;;;;;;;5.47;3.83;;;;;;;23.97;46.84;100179.66;5072930;28;20193;-69
2023/06/14 08:17:20;;;;;;;4.78;3.55;;;;;;;24.06;46.38;100192.84;5091604;28;20023;-68
2023/06/14 08:19:45;;;;;;;5.13;3.40;;;;;;;24.01;45.54;100189.94;5085980;28;20063;-69
2023/06/14 08:22:12;;;;;;;5.53;3.53;;;;;;;24.03;46.10;100190.56;5092135;28;20097;-69
2023/06/14 08:24:39;;;;;;;4.13;3.65;;;;;;;24.06;45.59;100195.56;5101769;28;20027;-69
2023/06/14 08:27:05;;;;;;;3.65;3.33;;;;;;;24.06;45.64;100179.13;5096331;28;20483;-69
2023/06/14 08:29:31;;;;;;;3.97;3.45;;;;;;;24.19;45.46;100198.19;5103725;28;20043;-68
2023/06/14 08:31:56;;;;;;;4.60;2.97;;;;;;;24.25;44.15;100208.25;5093875;28;20521;-68
2023/06/14 08:34:23;;;;;;;4.55;3.03;;;;;;;24.33;43.33;100205.25;5094138;28;20088;-69
2023/06/14 08:36:51;;;;;;;4.47;3.00;;;;;;;24.34;42.81;100197.84;5103989;28;20096;-69
2023/06/14 08:39:17;;;;;;;4.55;2.70;;;;;;;24.36;42.64;100193.81;5095226;28;20024;-69
2023/06/14 08:41:49;;;;;;;4.18;2.58;;;;;;;24.45;42.06;100206.16;5092899;28;20555;-69
2023/06/14 08:44:18;;;;;;;4.85;3.10;;;;;;;24.39;41.62;100190.63;5096177;28;20123;-69
2023/06/14 08:46:44;;;;;;;3.90;3.20;;;;;;;24.42;41.12;100203.91;5092014;28;20047;-69
2023/06/14 08:49:14;;;;;;;4.03;3.30;;;;;;;24.38;41.13;100197.16;5093425;28;20104;-70
2023/06/14 08:51:41;;;;;;;3.63;2.72;;;;;;;24.38;38.83;100208.13;5098197;28;20044;-69
2023/06/14 08:54:07;;;;;;;3.20;2.50;;;;;;;24.35;38.84;100213.25;5099103;28;20023;-70
2023/06/14 08:56:33;;;;;;;3.28;2.42;;;;;;;24.32;37.54;100209.03;5073015;28;20048;-70
2023/06/14 08:59:03;;;;;;;3.55;2.60;;;;;;;24.32;36.19;100214.50;5097648;28;20050;-70
2023/06/14 09:01:34;;;;;;;3.33;2.28;;;;;;;24.34;36.45;100214.28;5076502;28;20475;-70
2023/06/14 09:03:59;;;;;;;3.75;2.42;;;;;;;24.32;36.61;100217.25;5076784;28;20031;-69
2023/06/14 09:06:25;;;;;;;2.85;2.38;;;;;;;24.41;36.59;100210.41;5074057;28;20031;-70
2023/06/14 09:08:50;;;;;;;6.05;2.53;;;;;;;24.50;35.97;100210.16;5096216;28;20535;-69
2023/06/14 09:11:21;;;;;;;3.42;2.47;;;;;;;24.63;36.12;100218.22;5081705;28;20763;-69
2023/06/14 09:13:47;;;;;;;3.17;2.63;;;;;;;24.69;37.52;100206.38;5088673;28;20500;-70
2023/06/14 09:16:12;;;;;;;6.05;2.58;;;;;;;24.78;37.53;100207.72;5093064;28;20064;-70
2023/06/14 09:18:44;;;;;;;3.22;2.67;;;;;;;24.82;37.06;100208.97;5094389;28;20042;-69
2023/06/14 09:21:11;;;;;;;2.88;2.47;;;;;;;24.87;36.84;100214.59;5095530;28;20027;-69
2023/06/14 09:23:47;;;;;;;3.85;2.85;;;;;;;24.90;37.14;100204.00;5081241;28;20060;-69
2023/06/14 09:26:17;;;;;;;5.43;2.90;;;;;;;24.94;36.85;100204.38;5091594;28;20047;-69
2023/06/14 09:28:47;;;;;;;3.58;3.20;;;;;;;24.91;37.07;100204.81;5093893;28;20047;-69
2023/06/14 09:31:18;;;;;;;4.03;2.80;;;;;;;24.83;36.76;100197.78;5066285;28;20067;-69
2023/06/14 09:33:48;;;;;;;5.15;2.80;;;;;;;24.80;36.91;100192.75;5095238;28;20036;-69
2023/06/14 09:36:17;;;;;;;5.97;2.47;;;;;;;24.78;36.71;100204.97;5090102;28;20426;-69
2023/06/14 09:38:55;;;;;;;3.33;2.88;;;;;;;24.75;36.74;100202.69;5091553;28;20406;-69
2023/06/14 09:41:32;;;;;;;3.15;2.55;;;;;;;24.74;36.99;100201.03;5097195;28;20020;-70
2023/06/14 09:44:00;;;;;;;4.80;2.75;;;;;;;24.72;36.87;100201.25;5102754;28;20428;-70
2023/06/14 09:46:26;;;;;;;4.35;2.95;;;;;;;24.69;36.64;100203.63;5077415;28;20028;-71
2023/06/14 09:48:52;;;;;;;4.43;2.70;;;;;;;24.67;35.99;100200.28;5093164;28;20036;-70
2023/06/14 09:51:20;;;;;;;4.57;2.95;;;;;;;24.65;36.25;100196.91;5098490;28;20502;-69
2023/06/14 09:53:48;;;;;;;2.65;2.40;;;;;;;24.62;35.92;100184.47;5098464;28;20024;-69
2023/06/14 09:56:27;;;;;;;3.17;2.55;;;;;;;24.71;35.91;100199.59;5087277;28;20028;-70
2023/06/14 09:58:57;;;;;;;4.53;2.70;;;;;;;24.58;36.07;100177.78;5096153;28;20092;-69
2023/06/14 10:01:29;;;;;;;4.82;2.60;;;;;;;24.66;36.22;100182.16;5073246;28;20024;-70
2023/06/14 10:04:02;;;;;;;3.25;2.60;;;;;;;24.67;36.34;100173.69;5084328;28;20043;-70
2023/06/14 10:06:28;;;;;;;3.88;2.92;;;;;;;24.82;36.55;100184.28;5092618;28;20532;-69
2023/06/14 10:08:57;;;;;;;3.15;2.40;;;;;;;24.89;35.46;100185.84;5098268;28;20024;-69
2023/06/14 10:11:24;;;;;;;6.78;3.10;;;;;;;24.95;34.99;100186.84;5093675;28;20031;-69
2023/06/14 10:13:50;;;;;;;4.05;2.88;;;;;;;24.96;35.00;100167.41;5095405;28;20024;-69
2023/06/14 10:16:27;;;;;;;3.53;2.40;;;;;;;25.12;35.22;100185.13;5082936;28;20032;-70
2023/06/14 10:19:14;;;;;;;3.17;2.55;;;;;;;25.20;35.39;100190.28;5085540;28;20422;-70
2023/06/14 10:22:01;;;;;;;4.75;2.95;;;;;;;25.27;35.50;100188.28;5077970;28;20732;-70
2023/06/14 10:24:32;;;;;;;4.15;2.72;;;;;;;25.34;35.37;100191.84;5097539;28;20030;-70
2023/06/14 10:27:02;;;;;;;5.78;3.15;;;;;;;25.41;35.49;100178.84;5070127;28;20402;-69
2023/06/14 10:29:32;;;;;;;6.05;2.83;;;;;;;25.39;35.61;100167.25;5075229;28;20474;-70
2023/06/14 10:31:59;;;;;;;6.60;3.35;;;;;;;25.54;35.28;100189.63;5094066;28;20016;-70
2023/06/14 10:34:30;;;;;;;4.20;3.00;;;;;;;25.51;35.47;100177.22;5093285;28;20024;-75
2023/06/14 10:37:05;;;;;;;5.30;2.83;;;;;;;25.55;35.09;100178.41;5073065;28;20024;-75
2023/06/14 10:39:47;;;;;;;5.05;2.88;;;;;;;25.50;35.34;100170.03;5093691;28;20124;-75
2023/06/14 10:42:14;;;;;;;4.10;2.83;;;;;;;25.54;35.41;100175.91;5077066;28;20024;-75
2023/06/14 10:44:59;;;;;;;8.18;2.75;;;;;;;25.48;35.52;100172.19;5092143;28;20032;-75
2023/06/14 10:47:30;;;;;;;5.85;3.05;;;;;;;25.46;35.71;100177.06;5090792;28;20048;-75
2023/06/14 10:49:58;;;;;;;7.55;3.05;;;;;;;25.43;35.74;100173.94;5079066;28;20038;-75
2023/06/14 10:52:28;;;;;;;7.53;3.13;;;;;;;25.37;35.75;100163.91;5099334;28;20019;-75
2023/06/14 10:55:22;;;;;;;5.90;2.67;;;;;;;25.36;35.61;100165.81;5091148;28;20059;-75
2023/06/14 10:57:55;;;;;;;3.22;2.60;;;;;;;25.33;35.38;100159.94;5076603;28;20079;-75
2023/06/14 11:00:23;;;;;;;3.15;2.70;;;;;;;25.35;35.63;100150.41;5096606;28;20035;-75
2023/06/14 11:03:10;;;;;;;8.65;3.13;;;;;;;25.39;35.80;100150.75;5079133;28;20070;-77
2023/06/14 11:05:52;;;;;;;3.42;2.80;;;;;;;25.44;35.76;100151.72;5092355;28;20100;-75
2023/06/14 11:08:24;;;;;;;3.80;2.72;;;;;;;25.48;35.65;100154.84;5104201;28;20030;-70
2023/06/14 11:10:51;;;;;;;5.63;2.90;;;;;;;25.38;35.34;100135.38;5098865;28;20031;-70
2023/06/14 11:13:17;;;;;;;4.43;3.45;;;;;;;25.40;35.67;100153.28;5079145;28;20433;-70
2023/06/14 11:15:47;;;;;;;3.38;2.70;;;;;;;25.38;35.89;100147.19;5100732;28;20558;-70
2023/06/14 11:18:14;;;;;;;10.40;3.92;;;;;;;25.46;35.45;100151.50;5098047;28;20035;-70
2023/06/14 11:20:40;;;;;;;16.80;4.97;;;;;;;25.52;34.88;100147.81;5099188;28;20487;-70
2023/06/14 11:23:06;;;;;;;7.20;2.90;;;;;;;25.59;34.93;100151.28;5097576;28;20035;-70